sensor_id;sensor_type;location;lat;lon;timestamp;P1;durP1;ratioP1;P2;durP2;ratioP2
35757;SDS011;21879;50.110;18.900;2022-08-21T00:09:44;20.00;;;15.40;;
35757;SDS011;21879;50.110;18.900;2022-08-21T00:20:13;20.20;;;15.80;;
35757;SDS011;21879;50.110;18.900;2022-08-21T00:30:44;20.80;;;16.20;;
35757;SDS011;21879;50.110;18.900;2022-08-21T00:41:13;22.50;;;18.50;;
35757;SDS011;21879;50.110;18.900;2022-08-21T00:52:03;20.60;;;17.70;;
35757;SDS011;21879;50.110;18.900;2022-08-21T01:02:35;23.20;;;17.50;;
35757;SDS011;21879;50.110;18.900;2022-08-21T01:13:05;24.80;;;20.30;;
35757;SDS011;21879;50.110;18.900;2022-08-21T01:23:36;23.60;;;20.20;;
35757;SDS011;21879;50.110;18.900;2022-08-21T01:34:09;22.70;;;19.50;;
35757;SDS011;21879;50.110;18.900;2022-08-21T01:44:38;21.50;;;17.20;;
35757;SDS011;21879;50.110;18.900;2022-08-21T01:55:08;23.10;;;19.50;;
35757;SDS011;21879;50.110;18.900;2022-08-21T02:05:38;23.80;;;19.70;;
35757;SDS011;21879;50.110;18.900;2022-08-21T02:16:07;19.50;;;17.00;;
35757;SDS011;21879;50.110;18.900;2022-08-21T02:26:41;21.50;;;16.10;;
35757;SDS011;21879;50.110;18.900;2022-08-21T02:37:10;22.00;;;16.70;;
35757;SDS011;21879;50.110;18.900;2022-08-21T02:47:40;22.10;;;16.80;;
35757;SDS011;21879;50.110;18.900;2022-08-21T02:58:16;22.10;;;17.80;;
35757;SDS011;21879;50.110;18.900;2022-08-21T03:08:47;20.80;;;16.00;;
35757;SDS011;21879;50.110;18.900;2022-08-21T03:19:16;19.80;;;15.70;;
35757;SDS011;21879;50.110;18.900;2022-08-21T03:29:46;19.60;;;16.00;;
35757;SDS011;21879;50.110;18.900;2022-08-21T03:40:16;20.20;;;16.50;;
35757;SDS011;21879;50.110;18.900;2022-08-21T03:50:46;19.70;;;15.90;;
35757;SDS011;21879;50.110;18.900;2022-08-21T04:01:15;18.80;;;14.30;;
35757;SDS011;21879;50.110;18.900;2022-08-21T04:11:45;19.50;;;15.70;;
35757;SDS011;21879;50.110;18.900;2022-08-21T04:22:14;20.00;;;15.00;;
35757;SDS011;21879;50.110;18.900;2022-08-21T04:32:44;20.10;;;15.50;;
35757;SDS011;21879;50.110;18.900;2022-08-21T04:43:15;19.10;;;15.40;;
35757;SDS011;21879;50.110;18.900;2022-08-21T04:53:45;21.40;;;16.20;;
35757;SDS011;21879;50.110;18.900;2022-08-21T05:04:18;17.60;;;13.80;;
35757;SDS011;21879;50.110;18.900;2022-08-21T05:14:53;16.10;;;13.30;;
35757;SDS011;21879;50.110;18.900;2022-08-21T05:25:22;18.10;;;13.60;;
35757;SDS011;21879;50.110;18.900;2022-08-21T05:35:53;19.90;;;14.40;;
35757;SDS011;21879;50.110;18.900;2022-08-21T05:46:22;23.20;;;17.10;;
35757;SDS011;21879;50.110;18.900;2022-08-21T05:56:51;25.60;;;19.30;;
35757;SDS011;21879;50.110;18.900;2022-08-21T06:07:20;19.80;;;15.30;;
35757;SDS011;21879;50.110;18.900;2022-08-21T06:17:49;6.60;;;5.00;;
35757;SDS011;21879;50.110;18.900;2022-08-21T06:28:19;1.90;;;1.40;;
35757;SDS011;21879;50.110;18.900;2022-08-21T06:38:48;2.90;;;1.20;;
35757;SDS011;21879;50.110;18.900;2022-08-21T06:49:17;1.70;;;0.80;;
35757;SDS011;21879;50.110;18.900;2022-08-21T06:59:45;1.80;;;0.90;;
35757;SDS011;21879;50.110;18.900;2022-08-21T07:10:15;4.00;;;1.00;;
35757;SDS011;21879;50.110;18.900;2022-08-21T07:20:47;3.00;;;1.40;;
35757;SDS011;21879;50.110;18.900;2022-08-21T07:31:16;1.10;;;0.70;;
35757;SDS011;21879;50.110;18.900;2022-08-21T07:41:47;0.90;;;0.40;;
35757;SDS011;21879;50.110;18.900;2022-08-21T07:52:16;1.70;;;0.80;;
35757;SDS011;21879;50.110;18.900;2022-08-21T08:02:46;1.00;;;0.40;;
35757;SDS011;21879;50.110;18.900;2022-08-21T08:13:17;1.20;;;0.40;;
35757;SDS011;21879;50.110;18.900;2022-08-21T08:23:46;1.00;;;0.60;;
35757;SDS011;21879;50.110;18.900;2022-08-21T08:34:15;1.90;;;0.80;;
35757;SDS011;21879;50.110;18.900;2022-08-21T08:44:49;2.10;;;1.10;;
35757;SDS011;21879;50.110;18.900;2022-08-21T08:55:28;3.10;;;1.50;;
35757;SDS011;21879;50.110;18.900;2022-08-21T09:06:03;1.60;;;0.70;;
35757;SDS011;21879;50.110;18.900;2022-08-21T09:16:41;3.20;;;1.00;;
35757;SDS011;21879;50.110;18.900;2022-08-21T09:27:21;1.40;;;1.20;;
35757;SDS011;21879;50.110;18.900;2022-08-21T09:37:53;2.50;;;1.60;;
35757;SDS011;21879;50.110;18.900;2022-08-21T09:48:25;2.20;;;1.40;;
35757;SDS011;21879;50.110;18.900;2022-08-21T09:58:57;3.50;;;2.10;;
35757;SDS011;21879;50.110;18.900;2022-08-21T10:09:26;3.10;;;2.40;;
35757;SDS011;21879;50.110;18.900;2022-08-21T10:19:58;6.10;;;4.00;;
35757;SDS011;21879;50.110;18.900;2022-08-21T10:30:36;7.60;;;4.50;;
35757;SDS011;21879;50.110;18.900;2022-08-21T10:41:13;7.60;;;4.10;;
35757;SDS011;21879;50.110;18.900;2022-08-21T10:51:49;6.90;;;3.80;;
35757;SDS011;21879;50.110;18.900;2022-08-21T11:02:30;5.30;;;3.30;;
35757;SDS011;21879;50.110;18.900;2022-08-21T11:13:05;5.00;;;3.10;;
35757;SDS011;21879;50.110;18.900;2022-08-21T11:23:41;4.20;;;2.80;;
35757;SDS011;21879;50.110;18.900;2022-08-21T11:34:18;5.60;;;3.10;;
35757;SDS011;21879;50.110;18.900;2022-08-21T11:45:03;3.80;;;3.00;;
35757;SDS011;21879;50.110;18.900;2022-08-21T11:55:41;6.50;;;2.80;;
35757;SDS011;21879;50.110;18.900;2022-08-21T12:06:15;7.00;;;2.80;;
35757;SDS011;21879;50.110;18.900;2022-08-21T12:17:03;3.30;;;1.90;;
35757;SDS011;21879;50.110;18.900;2022-08-21T12:27:44;3.80;;;3.20;;
35757;SDS011;21879;50.110;18.900;2022-08-21T12:38:17;4.20;;;3.20;;
35757;SDS011;21879;50.110;18.900;2022-08-21T12:48:51;3.40;;;2.30;;
35757;SDS011;21879;50.110;18.900;2022-08-21T12:59:23;1.90;;;1.30;;
35757;SDS011;21879;50.110;18.900;2022-08-21T13:09:53;2.20;;;1.50;;
35757;SDS011;21879;50.110;18.900;2022-08-21T13:20:27;1.40;;;1.10;;
35757;SDS011;21879;50.110;18.900;2022-08-21T13:30:57;3.30;;;2.30;;
35757;SDS011;21879;50.110;18.900;2022-08-21T13:41:28;6.30;;;3.40;;
35757;SDS011;21879;50.110;18.900;2022-08-21T13:52:00;7.00;;;3.40;;
35757;SDS011;21879;50.110;18.900;2022-08-21T14:02:36;4.20;;;3.50;;
35757;SDS011;21879;50.110;18.900;2022-08-21T14:13:07;5.70;;;4.00;;
35757;SDS011;21879;50.110;18.900;2022-08-21T14:23:49;7.70;;;4.40;;
35757;SDS011;21879;50.110;18.900;2022-08-21T14:34:28;7.90;;;5.70;;
35757;SDS011;21879;50.110;18.900;2022-08-21T14:45:02;6.70;;;5.00;;
35757;SDS011;21879;50.110;18.900;2022-08-21T14:55:37;8.80;;;7.10;;
35757;SDS011;21879;50.110;18.900;2022-08-21T15:06:24;6.70;;;4.60;;
35757;SDS011;21879;50.110;18.900;2022-08-21T15:16:53;8.60;;;6.80;;
35757;SDS011;21879;50.110;18.900;2022-08-21T15:27:23;10.50;;;6.30;;
35757;SDS011;21879;50.110;18.900;2022-08-21T15:37:52;8.60;;;6.80;;
35757;SDS011;21879;50.110;18.900;2022-08-21T15:48:21;9.90;;;5.90;;
35757;SDS011;21879;50.110;18.900;2022-08-21T15:58:50;6.70;;;4.70;;
35757;SDS011;21879;50.110;18.900;2022-08-21T16:09:20;5.40;;;3.80;;
35757;SDS011;21879;50.110;18.900;2022-08-21T16:19:50;7.80;;;4.80;;
35757;SDS011;21879;50.110;18.900;2022-08-21T16:30:19;8.50;;;4.40;;
35757;SDS011;21879;50.110;18.900;2022-08-21T16:40:49;7.40;;;4.30;;
35757;SDS011;21879;50.110;18.900;2022-08-21T16:51:18;5.90;;;4.30;;
35757;SDS011;21879;50.110;18.900;2022-08-21T17:01:47;3.90;;;2.80;;
35757;SDS011;21879;50.110;18.900;2022-08-21T17:12:16;3.20;;;2.00;;
35757;SDS011;21879;50.110;18.900;2022-08-21T17:22:46;3.50;;;1.80;;
35757;SDS011;21879;50.110;18.900;2022-08-21T17:33:16;5.20;;;2.30;;
35757;SDS011;21879;50.110;18.900;2022-08-21T17:43:46;3.90;;;2.60;;
35757;SDS011;21879;50.110;18.900;2022-08-21T17:54:16;3.90;;;2.60;;
35757;SDS011;21879;50.110;18.900;2022-08-21T18:04:45;3.60;;;2.50;;
35757;SDS011;21879;50.110;18.900;2022-08-21T18:15:15;3.00;;;1.60;;
35757;SDS011;21879;50.110;18.900;2022-08-21T18:25:48;2.50;;;1.60;;
35757;SDS011;21879;50.110;18.900;2022-08-21T18:36:20;2.30;;;1.10;;
35757;SDS011;21879;50.110;18.900;2022-08-21T18:46:50;1.70;;;1.40;;
35757;SDS011;21879;50.110;18.900;2022-08-21T18:57:22;4.40;;;2.00;;
35757;SDS011;21879;50.110;18.900;2022-08-21T19:07:55;2.70;;;1.90;;
35757;SDS011;21879;50.110;18.900;2022-08-21T19:18:25;1.80;;;1.00;;
35757;SDS011;21879;50.110;18.900;2022-08-21T19:28:56;2.70;;;1.40;;
35757;SDS011;21879;50.110;18.900;2022-08-21T19:39:29;1.10;;;0.70;;
35757;SDS011;21879;50.110;18.900;2022-08-21T19:50:08;2.40;;;1.20;;
35757;SDS011;21879;50.110;18.900;2022-08-21T20:00:45;2.90;;;2.00;;
35757;SDS011;21879;50.110;18.900;2022-08-21T20:11:18;4.10;;;1.60;;
35757;SDS011;21879;50.110;18.900;2022-08-21T20:21:50;3.60;;;1.70;;
35757;SDS011;21879;50.110;18.900;2022-08-21T20:32:20;3.90;;;2.40;;
35757;SDS011;21879;50.110;18.900;2022-08-21T20:42:51;2.70;;;1.90;;
35757;SDS011;21879;50.110;18.900;2022-08-21T20:53:22;5.40;;;2.70;;
35757;SDS011;21879;50.110;18.900;2022-08-21T21:04:11;6.10;;;2.90;;
35757;SDS011;21879;50.110;18.900;2022-08-21T21:14:51;4.80;;;2.30;;
35757;SDS011;21879;50.110;18.900;2022-08-21T21:25:25;1.20;;;0.90;;
35757;SDS011;21879;50.110;18.900;2022-08-21T21:36:07;2.20;;;1.10;;
35757;SDS011;21879;50.110;18.900;2022-08-21T21:46:47;2.70;;;1.40;;
35757;SDS011;21879;50.110;18.900;2022-08-21T21:57:34;1.30;;;0.70;;
35757;SDS011;21879;50.110;18.900;2022-08-21T22:08:22;2.30;;;0.80;;
35757;SDS011;21879;50.110;18.900;2022-08-21T22:18:57;1.90;;;0.60;;
35757;SDS011;21879;50.110;18.900;2022-08-21T22:29:41;1.50;;;0.70;;
35757;SDS011;21879;50.110;18.900;2022-08-21T22:40:14;5.10;;;1.00;;
35757;SDS011;21879;50.110;18.900;2022-08-21T22:50:54;1.00;;;0.60;;
35757;SDS011;21879;50.110;18.900;2022-08-21T23:01:31;1.40;;;0.50;;
35757;SDS011;21879;50.110;18.900;2022-08-21T23:12:05;2.70;;;0.60;;
35757;SDS011;21879;50.110;18.900;2022-08-21T23:23:01;1.60;;;0.90;;
35757;SDS011;21879;50.110;18.900;2022-08-21T23:33:42;1.10;;;0.50;;
35757;SDS011;21879;50.110;18.900;2022-08-21T23:44:35;0.90;;;0.60;;
35757;SDS011;21879;50.110;18.900;2022-08-21T23:55:16;2.00;;;0.60;;
